Time;durP1;ratioP1;P1;durP2;ratioP2;P2;SDS_P1;SDS_P2;PMS_P1;PMS_P2;Temp;Humidity;BMP_temperature;BMP_pressure;BME280_temperature;BME280_humidity;BME280_pressure;Samples;Min_cycle;Max_cycle;Signal;HPM_P1;HPM_P2
2021/05/29 00:01:32;;;;;;;3.10;2.88;;;9.20;99.90;;;;;;4734030;30;20060;-85
2021/05/29 00:04:01;;;;;;;3.25;2.67;;;9.20;99.90;;;;;;4750946;30;20056;-88
2021/05/29 00:06:29;;;;;;;2.25;2.05;;;9.20;99.90;;;;;;4734663;30;20056;-87
2021/05/29 00:08:57;;;;;;;2.35;2.15;;;9.20;99.90;;;;;;4721390;30;20050;-87
2021/05/29 00:11:25;;;;;;;2.20;2.00;;;9.20;99.90;;;;;;4699610;30;20061;-88
2021/05/29 00:13:53;;;;;;;2.42;2.22;;;9.10;99.90;;;;;;4713314;30;20049;-88
2021/05/29 00:16:21;;;;;;;2.55;2.35;;;9.00;99.90;;;;;;4699524;30;20444;-86
2021/05/29 00:18:50;;;;;;;1.92;1.83;;;8.90;99.90;;;;;;4713755;30;20064;-88
2021/05/29 00:21:21;;;;;;;2.15;2.00;;;8.90;99.90;;;;;;4713451;30;20076;-87
2021/05/29 00:23:56;;;;;;;4.07;1.80;;;8.90;99.90;;;;;;4711362;30;20065;-87
2021/05/29 00:26:27;;;;;;;2.53;2.33;;;8.90;99.90;;;;;;4715270;30;20255;-87
2021/05/29 00:29:02;;;;;;;1.67;1.58;;;9.00;99.90;;;;;;4699381;30;20060;-87
2021/05/29 00:31:33;;;;;;;1.92;1.80;;;9.10;99.90;;;;;;4712948;30;20064;-87
2021/05/29 00:34:01;;;;;;;2.03;1.92;;;9.10;99.90;;;;;;4684174;30;20049;-88
2021/05/29 00:36:33;;;;;;;1.98;1.77;;;9.20;99.90;;;;;;4701951;30;20063;-87
2021/05/29 00:39:00;;;;;;;2.97;2.00;;;9.30;99.90;;;;;;4718306;30;20056;-88
2021/05/29 00:41:29;;;;;;;2.15;1.95;;;9.40;99.90;;;;;;4718640;30;20512;-87
2021/05/29 00:43:57;;;;;;;2.10;1.77;;;9.40;99.90;;;;;;4734072;30;20055;-87
2021/05/29 00:46:24;;;;;;;1.80;1.70;;;9.40;99.90;;;;;;4719002;30;20056;-87
2021/05/29 00:48:53;;;;;;;2.08;1.92;;;9.40;99.90;;;;;;4732949;30;20420;-88
2021/05/29 00:51:21;;;;;;;9.35;2.92;;;9.40;99.90;;;;;;4719186;30;20068;-88
2021/05/29 00:53:49;;;;;;;2.28;2.08;;;9.40;99.90;;;;;;4716325;30;20482;-88
2021/05/29 00:56:17;;;;;;;3.28;2.78;;;9.40;99.90;;;;;;4749095;30;20380;-87
2021/05/29 00:58:45;;;;;;;1.90;1.80;;;9.40;99.90;;;;;;4733018;30;20059;-87
2021/05/29 01:01:13;;;;;;;4.53;2.72;;;9.50;99.90;;;;;;4732258;30;20060;-87
2021/05/29 01:03:41;;;;;;;2.30;2.10;;;9.40;99.90;;;;;;4732785;30;20404;-87
2021/05/29 01:06:09;;;;;;;2.75;2.55;;;9.30;99.90;;;;;;4747747;30;20407;-88
2021/05/29 01:08:37;;;;;;;3.35;3.10;;;9.30;99.90;;;;;;4716160;30;20056;-87
2021/05/29 01:11:09;;;;;;;2.50;2.08;;;9.20;99.90;;;;;;4718109;30;20418;-87
2021/05/29 01:13:40;;;;;;;2.45;2.25;;;9.20;99.90;;;;;;4732492;30;20044;-88
2021/05/29 01:16:42;;;;;;;2.42;2.22;;;9.10;99.90;;;;;;4733547;30;20526;-87
2021/05/29 01:18:59;;;;;;;2.67;2.47;;;9.10;99.90;;;;;;4730146;30;20048;-88
2021/05/29 01:21:30;;;;;;;2.25;2.05;;;9.00;99.90;;;;;;4724505;30;20044;-87
2021/05/29 01:23:58;;;;;;;2.75;2.55;;;8.90;99.90;;;;;;4716403;30;20059;-87
2021/05/29 01:26:26;;;;;;;6.03;2.17;;;8.90;99.90;;;;;;4731914;30;20048;-88
2021/05/29 01:28:56;;;;;;;2.63;2.17;;;8.90;99.90;;;;;;4747391;30;20440;-87
2021/05/29 01:31:30;;;;;;;3.00;2.67;;;8.90;99.90;;;;;;4702775;30;20310;-87
2021/05/29 01:34:00;;;;;;;2.58;2.38;;;8.90;99.90;;;;;;4696973;30;20413;-88
2021/05/29 01:36:29;;;;;;;2.08;1.98;;;8.80;99.90;;;;;;4714281;30;20056;-88
2021/05/29 01:38:57;;;;;;;2.60;2.20;;;8.70;99.90;;;;;;4731462;30;20411;-88
2021/05/29 01:41:25;;;;;;;2.95;1.65;;;8.60;99.90;;;;;;4716286;30;20059;-87
2021/05/29 01:43:53;;;;;;;1.65;1.55;;;8.50;99.90;;;;;;4718678;30;20064;-88
2021/05/29 01:46:22;;;;;;;2.95;2.75;;;8.40;99.90;;;;;;4732620;30;20419;-87
2021/05/29 01:48:51;;;;;;;2.70;2.50;;;8.30;99.90;;;;;;4731211;30;20079;-87
2021/05/29 01:51:22;;;;;;;2.22;2.10;;;8.30;99.90;;;;;;4718129;30;20492;-87
2021/05/29 01:53:51;;;;;;;3.15;1.92;;;8.10;99.90;;;;;;4716171;30;20052;-87
2021/05/29 01:56:20;;;;;;;3.15;2.95;;;8.00;99.90;;;;;;4718069;30;20064;-87
2021/05/29 01:58:48;;;;;;;2.83;2.20;;;8.00;99.90;;;;;;4732918;30;20065;-88
2021/05/29 02:01:16;;;;;;;3.05;2.33;;;8.00;99.90;;;;;;4717300;30;20224;-88
2021/05/29 02:03:45;;;;;;;3.25;2.38;;;8.00;99.90;;;;;;4718071;30;20068;-87
2021/05/29 02:06:15;;;;;;;1.80;1.70;;;7.90;99.90;;;;;;4717625;30;20063;-87
2021/05/29 02:08:43;;;;;;;3.20;2.55;;;7.90;99.90;;;;;;4723458;30;20079;-87
2021/05/29 02:11:12;;;;;;;2.70;2.50;;;7.90;99.90;;;;;;4697093;30;20053;-87
2021/05/29 02:13:42;;;;;;;4.18;2.50;;;7.90;99.90;;;;;;4697260;30;20057;-87
2021/05/29 02:16:11;;;;;;;4.22;3.25;;;7.80;99.90;;;;;;4683553;30;20053;-87
2021/05/29 02:18:41;;;;;;;3.78;1.77;;;7.70;99.90;;;;;;4711806;30;20046;-87
2021/05/29 02:21:12;;;;;;;3.15;2.72;;;7.70;99.90;;;;;;4711209;30;20053;-87
2021/05/29 02:23:51;;;;;;;1.75;1.65;;;7.60;99.90;;;;;;4710506;30;20523;-88
2021/05/29 02:26:22;;;;;;;8.55;2.75;;;7.70;99.90;;;;;;4697024;30;20045;-87
2021/05/29 02:28:54;;;;;;;1.95;1.75;;;7.60;99.90;;;;;;4697489;30;20049;-87
2021/05/29 02:31:23;;;;;;;2.00;1.90;;;7.60;99.90;;;;;;4697277;30;20080;-88
2021/05/29 02:33:52;;;;;;;2.40;2.30;;;7.60;99.90;;;;;;4710960;30;20377;-88
2021/05/29 02:36:20;;;;;;;1.83;1.55;;;7.60;99.90;;;;;;4712547;30;20063;-87
2021/05/29 02:38:48;;;;;;;4.25;2.38;;;7.60;99.90;;;;;;4730923;30;20064;-84
2021/05/29 02:41:16;;;;;;;2.55;2.35;;;7.60;99.90;;;;;;4731906;30;20534;-87
2021/05/29 02:43:44;;;;;;;2.92;2.72;;;7.60;99.90;;;;;;4718362;30;20415;-85
2021/05/29 02:46:12;;;;;;;2.20;2.00;;;7.70;99.90;;;;;;4725604;30;20182;-87
2021/05/29 02:48:40;;;;;;;3.72;1.98;;;7.70;99.90;;;;;;4696888;30;20085;-88
2021/05/29 02:51:10;;;;;;;2.97;2.30;;;7.70;99.90;;;;;;4697276;30;20067;-88
2021/05/29 02:53:38;;;;;;;2.40;2.20;;;7.80;99.90;;;;;;4695958;30;20504;-87
2021/05/29 02:56:06;;;;;;;1.85;1.75;;;7.80;99.90;;;;;;4697326;30;20088;-87
2021/05/29 02:58:35;;;;;;;2.03;1.65;;;7.80;99.90;;;;;;4697151;30;20081;-87
2021/05/29 03:01:03;;;;;;;2.10;1.90;;;7.70;99.90;;;;;;4696646;30;20068;-84
2021/05/29 03:03:31;;;;;;;2.13;2.03;;;7.70;99.90;;;;;;4697413;30;20064;-87
2021/05/29 03:05:59;;;;;;;1.65;1.55;;;7.70;99.90;;;;;;4682122;30;20060;-87
2021/05/29 03:08:27;;;;;;;2.13;2.03;;;7.60;99.90;;;;;;4696892;30;20053;-86
2021/05/29 03:10:56;;;;;;;1.95;1.80;;;7.70;99.90;;;;;;4681482;30;20060;-87
2021/05/29 03:13:24;;;;;;;4.38;2.10;;;7.60;99.90;;;;;;4696075;30;20378;-86
2021/05/29 03:15:52;;;;;;;2.42;1.85;;;7.70;99.90;;;;;;4697741;30;20398;-86
2021/05/29 03:18:20;;;;;;;2.22;1.98;;;7.70;99.90;;;;;;4696715;30;20142;-88
2021/05/29 03:20:48;;;;;;;2.33;2.13;;;7.70;99.90;;;;;;4682079;30;20052;-88
2021/05/29 03:23:16;;;;;;;2.70;1.88;;;7.70;99.90;;;;;;4697300;30;20061;-88
2021/05/29 03:25:44;;;;;;;3.50;2.70;;;7.70;99.90;;;;;;4696666;30;20053;-88
2021/05/29 03:28:13;;;;;;;1.77;1.60;;;7.70;99.90;;;;;;4686795;30;20060;-87
2021/05/29 03:30:42;;;;;;;4.20;2.22;;;7.70;99.90;;;;;;4699398;30;20062;-87
2021/05/29 03:33:12;;;;;;;1.40;1.30;;;7.70;99.90;;;;;;4714303;30;20057;-87
2021/05/29 03:35:41;;;;;;;2.45;2.25;;;7.70;99.90;;;;;;4719851;30;20089;-87
2021/05/29 03:38:10;;;;;;;2.20;2.00;;;7.70;99.90;;;;;;4720970;30;20060;-87
2021/05/29 03:40:37;;;;;;;2.10;1.90;;;7.70;99.90;;;;;;4718267;30;20056;-87
2021/05/29 03:43:07;;;;;;;1.95;1.85;;;7.60;99.90;;;;;;4720784;30;20460;-88
2021/05/29 03:45:34;;;;;;;2.95;1.77;;;7.60;99.90;;;;;;4750700;30;20052;-88
2021/05/29 03:48:03;;;;;;;2.53;2.30;;;7.60;99.90;;;;;;4735319;30;20056;-87
2021/05/29 03:50:32;;;;;;;2.35;1.80;;;7.50;99.90;;;;;;4719393;30;20059;-87
2021/05/29 03:53:00;;;;;;;2.28;1.75;;;7.50;99.90;;;;;;4720012;30;20133;-88
2021/05/29 03:55:28;;;;;;;2.03;1.92;;;7.50;99.90;;;;;;4718840;30;20060;-88
2021/05/29 03:57:56;;;;;;;2.63;2.33;;;7.50;99.90;;;;;;4748144;30;20056;-87
2021/05/29 04:00:25;;;;;;;3.42;2.53;;;7.50;99.90;;;;;;4734226;30;20487;-88
2021/05/29 04:02:54;;;;;;;2.25;2.08;;;7.60;99.90;;;;;;4720162;30;20056;-87
2021/05/29 04:05:23;;;;;;;3.17;2.67;;;7.60;99.90;;;;;;4734324;30;20087;-88
2021/05/29 04:07:52;;;;;;;2.78;2.50;;;7.60;99.90;;;;;;4749986;30;20068;-88
2021/05/29 04:10:26;;;;;;;3.00;2.40;;;7.70;99.90;;;;;;4700466;30;20057;-83
2021/05/29 04:12:55;;;;;;;5.68;2.72;;;7.80;99.90;;;;;;4715403;30;20059;-88
2021/05/29 04:15:24;;;;;;;2.85;2.60;;;7.80;99.90;;;;;;4685613;30;20064;-87
2021/05/29 04:17:53;;;;;;;3.47;2.97;;;7.90;99.90;;;;;;4699651;30;20045;-87
2021/05/29 04:20:23;;;;;;;3.03;2.72;;;8.10;99.90;;;;;;4698168;30;20061;-87
2021/05/29 04:22:52;;;;;;;3.35;2.67;;;8.20;99.90;;;;;;4699828;30;20061;-88
2021/05/29 04:25:23;;;;;;;3.13;2.88;;;8.30;99.90;;;;;;4711927;30;20416;-88
2021/05/29 04:27:52;;;;;;;2.55;2.10;;;8.40;99.90;;;;;;4714181;30;20384;-86
2021/05/29 04:30:23;;;;;;;3.40;3.10;;;8.50;99.90;;;;;;4712694;30;20057;-87
2021/05/29 04:32:52;;;;;;;3.25;2.83;;;8.60;99.90;;;;;;4713160;30;20060;-88
2021/05/29 04:35:21;;;;;;;2.72;2.38;;;8.60;99.90;;;;;;4714981;30;20053;-88
2021/05/29 04:37:51;;;;;;;4.30;3.38;;;8.70;99.90;;;;;;4734251;30;20048;-88
2021/05/29 04:40:22;;;;;;;6.82;3.13;;;8.80;99.90;;;;;;4747833;30;20056;-86
2021/05/29 04:42:51;;;;;;;;;;;8.80;99.90;;;;;;4720633;30;20056;-88
2021/05/29 04:45:20;;;;;;;2.83;2.40;;;8.80;99.90;;;;;;4748979;30;19926;-87
2021/05/29 04:47:50;;;;;;;3.30;3.05;;;8.80;99.90;;;;;;4718644;30;20068;-86
2021/05/29 04:50:18;;;;;;;3.60;3.30;;;8.90;99.90;;;;;;4712599;30;20061;-87
2021/05/29 04:52:46;;;;;;;3.78;3.45;;;9.00;99.90;;;;;;4713943;30;20497;-86
2021/05/29 04:55:15;;;;;;;3.53;2.67;;;9.10;99.90;;;;;;4712081;30;20069;-86
2021/05/29 04:57:44;;;;;;;3.38;3.08;;;9.10;99.90;;;;;;4713491;30;20064;-87
2021/05/29 05:00:15;;;;;;;3.80;3.35;;;9.20;99.90;;;;;;4713230;30;20170;-86
2021/05/29 05:02:43;;;;;;;3.13;2.83;;;9.30;99.90;;;;;;4713698;30;20065;-87
2021/05/29 05:05:12;;;;;;;3.17;2.97;;;9.30;99.90;;;;;;4698522;30;20496;-87
2021/05/29 05:07:41;;;;;;;3.42;3.13;;;9.50;99.90;;;;;;4699410;30;20060;-87
2021/05/29 05:10:10;;;;;;;4.50;2.85;;;9.60;99.90;;;;;;4696160;30;20065;-87
2021/05/29 05:12:38;;;;;;;3.33;3.05;;;9.70;99.90;;;;;;4712901;30;20413;-86
2021/05/29 05:15:07;;;;;;;3.10;2.40;;;9.80;99.90;;;;;;4684863;30;20772;-86
2021/05/29 05:17:35;;;;;;;2.78;2.58;;;10.00;99.90;;;;;;4712774;30;20068;-87
2021/05/29 05:20:04;;;;;;;2.63;2.42;;;10.20;99.90;;;;;;4713863;30;20072;-87
2021/05/29 05:22:33;;;;;;;6.05;2.85;;;10.30;99.90;;;;;;4714261;30;20049;-86
2021/05/29 05:25:03;;;;;;;2.88;2.67;;;10.40;99.90;;;;;;4712356;30;20079;-86
2021/05/29 05:27:32;;;;;;;2.88;2.50;;;10.40;99.90;;;;;;4684497;30;20057;-87
2021/05/29 05:30:00;;;;;;;4.13;3.75;;;10.50;99.90;;;;;;4712076;30;20433;-86
2021/05/29 05:32:28;;;;;;;3.33;3.00;;;10.70;99.90;;;;;;4712575;30;20057;-87
2021/05/29 05:34:57;;;;;;;2.85;2.42;;;10.90;99.90;;;;;;4698400;30;20061;-87
2021/05/29 05:37:25;;;;;;;3.88;3.58;;;10.90;99.90;;;;;;4744900;30;20059;-86
2021/05/29 05:39:53;;;;;;;4.05;3.05;;;10.90;99.90;;;;;;4746024;30;20052;-86
2021/05/29 05:42:21;;;;;;;4.45;3.08;;;10.80;99.90;;;;;;4749112;30;20063;-87
2021/05/29 05:44:49;;;;;;;3.72;2.78;;;10.90;99.90;;;;;;4748971;30;20055;-86
2021/05/29 05:47:18;;;;;;;3.35;2.97;;;11.20;99.90;;;;;;4733095;30;20068;-87
2021/05/29 05:49:46;;;;;;;3.15;2.85;;;11.50;99.90;;;;;;4732209;30;20060;-86
2021/05/29 05:52:14;;;;;;;2.88;2.35;;;11.80;99.90;;;;;;4733470;30;20081;-87
2021/05/29 05:54:42;;;;;;;4.28;3.08;;;11.80;99.90;;;;;;4730821;30;20052;-87
2021/05/29 05:57:10;;;;;;;2.53;2.33;;;12.10;99.90;;;;;;4732929;30;20044;-86
2021/05/29 05:59:38;;;;;;;2.63;2.42;;;12.40;99.90;;;;;;4748528;30;20056;-87
2021/05/29 06:02:09;;;;;;;2.65;2.45;;;12.50;99.90;;;;;;4733067;30;20052;-86
2021/05/29 06:04:37;;;;;;;4.15;2.03;;;12.70;99.90;;;;;;4732417;30;20067;-86
2021/05/29 06:07:06;;;;;;;2.85;2.65;;;12.70;99.90;;;;;;4732486;30;20073;-86
2021/05/29 06:09:34;;;;;;;4.70;2.10;;;12.50;99.90;;;;;;4717928;30;20404;-87
2021/05/29 06:12:02;;;;;;;4.68;2.72;;;12.40;99.90;;;;;;4712009;30;20053;-87
2021/05/29 06:20:10;;;;;;;4.00;3.60;;;12.50;99.90;;;;;;4697053;30;20061;-87
2021/05/29 06:22:41;;;;;;;3.15;2.85;;;12.60;99.90;;;;;;4697244;30;20481;-86
2021/05/29 06:25:13;;;;;;;3.60;3.30;;;12.60;99.90;;;;;;4710459;30;20053;-86
2021/05/29 06:27:41;;;;;;;6.25;3.22;;;12.90;99.90;;;;;;4712893;30;20070;-86
2021/05/29 06:30:10;;;;;;;3.13;2.83;;;13.40;99.90;;;;;;4711230;30;20068;-87
2021/05/29 06:32:39;;;;;;;9.38;3.35;;;14.00;99.90;;;;;;4696895;30;20092;-86
2021/05/29 06:35:08;;;;;;;2.67;2.47;;;14.00;99.90;;;;;;4711431;30;20049;-87
2021/05/29 06:37:37;;;;;;;2.85;2.60;;;13.90;99.90;;;;;;4746725;30;20071;-87
2021/05/29 06:40:07;;;;;;;5.25;2.78;;;13.80;99.90;;;;;;4731089;30;20423;-86
2021/05/29 06:42:36;;;;;;;2.88;2.67;;;13.80;99.90;;;;;;4703924;30;20499;-86
2021/05/29 06:45:05;;;;;;;2.85;2.65;;;13.80;99.90;;;;;;4746452;30;20075;-86
2021/05/29 06:47:35;;;;;;;3.30;3.10;;;13.70;99.90;;;;;;4707007;30;20053;-86
2021/05/29 06:50:05;;;;;;;2.95;2.65;;;13.60;99.90;;;;;;4712432;30;20434;-86
2021/05/29 06:52:36;;;;;;;3.72;2.90;;;13.20;99.90;;;;;;4712167;30;20053;-86
2021/05/29 07:00:38;;;;;;;2.58;1.85;;;13.30;99.90;;;;;;4699977;30;20064;-85
2021/05/29 07:03:06;;;;;;;3.88;3.00;;;13.40;99.90;;;;;;4716844;30;20065;-86
2021/05/29 07:05:35;;;;;;;1.80;1.70;;;13.60;99.90;;;;;;4685090;30;20053;-85
2021/05/29 07:08:04;;;;;;;1.80;1.70;;;13.80;99.70;;;;;;4686770;30;20537;-86
2021/05/29 07:10:32;;;;;;;2.40;2.20;;;13.90;98.90;;;;;;4683869;30;20064;-86
2021/05/29 07:13:00;;;;;;;2.33;2.08;;;14.00;99.60;;;;;;4700879;30;20052;-87
2021/05/29 07:15:35;;;;;;;2.10;1.90;;;14.20;99.20;;;;;;4686637;30;20072;-86
2021/05/29 07:18:14;;;;;;;2.33;2.13;;;14.20;97.70;;;;;;4716166;30;20065;-84
2021/05/29 07:20:43;;;;;;;2.40;2.20;;;14.00;96.80;;;;;;4699852;30;20059;-86
2021/05/29 07:23:11;;;;;;;2.47;2.28;;;13.80;98.30;;;;;;4686686;30;20064;-86
2021/05/29 07:25:41;;;;;;;2.00;1.90;;;13.60;99.40;;;;;;4714161;30;20056;-85
2021/05/29 07:28:09;;;;;;;1.95;1.80;;;13.60;98.00;;;;;;4716130;30;20065;-86
2021/05/29 07:30:37;;;;;;;1.60;1.50;;;13.70;97.50;;;;;;4703796;30;20045;-86
2021/05/29 07:33:05;;;;;;;2.78;2.55;;;13.60;97.40;;;;;;4685498;30;20520;-87
2021/05/29 07:35:33;;;;;;;1.75;1.65;;;13.30;99.90;;;;;;4704296;30;20072;-86
2021/05/29 07:38:01;;;;;;;1.85;1.75;;;13.30;99.90;;;;;;4735514;30;20055;-86
2021/05/29 07:40:29;;;;;;;3.00;2.50;;;13.20;99.30;;;;;;4718410;30;20060;-86
2021/05/29 07:42:57;;;;;;;2.20;1.83;;;13.10;99.90;;;;;;4735424;30;20516;-86
2021/05/29 07:45:26;;;;;;;2.58;2.35;;;13.00;99.90;;;;;;4734565;30;20052;-86
2021/05/29 07:47:54;;;;;;;2.20;2.00;;;13.00;99.90;;;;;;4750680;30;20059;-87
2021/05/29 07:50:22;;;;;;;2.38;2.17;;;13.10;99.90;;;;;;4732732;30;20055;-86
2021/05/29 07:52:50;;;;;;;4.70;1.50;;;13.10;99.90;;;;;;4720349;30;20048;-86
2021/05/29 07:55:19;;;;;;;2.10;1.67;;;13.10;99.90;;;;;;4719211;30;20056;-85
2021/05/29 08:02:38;;;;;;;2.00;1.90;;;13.40;99.90;;;;;;4687101;30;20056;-87
2021/05/29 08:05:13;;;;;;;3.80;2.53;;;13.60;99.90;;;;;;4712616;30;20255;-87
2021/05/29 08:07:41;;;;;;;2.53;2.33;;;13.60;99.90;;;;;;4726591;30;20064;-87
2021/05/29 08:10:10;;;;;;;2.50;2.20;;;13.80;99.90;;;;;;4681385;30;20084;-86
2021/05/29 08:12:38;;;;;;;3.42;3.22;;;14.00;99.90;;;;;;4694918;30;20062;-86
2021/05/29 08:15:08;;;;;;;2.17;2.08;;;14.00;99.40;;;;;;4695680;30;20062;-87
2021/05/29 08:17:36;;;;;;;1.42;1.33;;;14.10;99.60;;;;;;4680675;30;20046;-85
2021/05/29 08:20:05;;;;;;;1.60;1.50;;;14.10;99.10;;;;;;4694178;30;20061;-86
2021/05/29 08:22:33;;;;;;;1.55;1.45;;;14.20;99.90;;;;;;4695090;30;20054;-87
2021/05/29 08:25:01;;;;;;;1.52;1.42;;;14.20;97.50;;;;;;4679129;30;20057;-86
2021/05/29 08:27:29;;;;;;;2.08;1.98;;;14.20;97.70;;;;;;4681275;30;20057;-88
2021/05/29 08:29:58;;;;;;;2.25;1.85;;;14.00;98.50;;;;;;4688576;30;20064;-86
2021/05/29 08:32:26;;;;;;;2.30;2.15;;;14.10;98.60;;;;;;4713582;30;20060;-86
2021/05/29 08:34:54;;;;;;;1.80;1.70;;;14.50;99.40;;;;;;4713914;30;20057;-86
2021/05/29 08:37:24;;;;;;;3.05;2.05;;;14.60;96.40;;;;;;4729669;30;20060;-85
2021/05/29 08:39:52;;;;;;;2.88;1.50;;;14.70;96.20;;;;;;4717870;30;20056;-87
2021/05/29 08:42:19;;;;;;;1.52;1.42;;;14.70;97.80;;;;;;4734200;30;20048;-86
2021/05/29 08:44:47;;;;;;;2.03;1.83;;;15.20;98.70;;;;;;4719538;30;20059;-85
2021/05/29 08:47:15;;;;;;;2.22;2.13;;;15.50;95.90;;;;;;4728616;30;20064;-86
2021/05/29 08:49:43;;;;;;;1.48;1.38;;;15.60;94.70;;;;;;4713097;30;20060;-85
2021/05/29 08:52:11;;;;;;;2.65;1.65;;;15.60;95.50;;;;;;4684951;30;20084;-86
2021/05/29 08:54:39;;;;;;;2.10;1.58;;;15.00;95.20;;;;;;4713009;30;20428;-85
2021/05/29 08:57:07;;;;;;;3.97;1.90;;;15.20;98.70;;;;;;4714376;30;20084;-85
2021/05/29 08:59:35;;;;;;;1.58;1.48;;;15.30;96.10;;;;;;4714123;30;20519;-87
2021/05/29 09:02:05;;;;;;;2.10;2.00;;;15.40;95.90;;;;;;4698126;30;20057;-86
2021/05/29 09:04:33;;;;;;;1.70;1.60;;;15.50;96.60;;;;;;4714563;30;20064;-84
2021/05/29 09:07:01;;;;;;;1.42;1.10;;;15.60;93.30;;;;;;4714000;30;20053;-84
2021/05/29 09:09:29;;;;;;;1.50;1.40;;;15.60;93.20;;;;;;4712258;30;20430;-85
2021/05/29 09:12:02;;;;;;;1.95;1.33;;;15.00;93.30;;;;;;4713916;30;20072;-84
2021/05/29 09:14:38;;;;;;;2.33;1.20;;;14.90;93.30;;;;;;4714452;30;20084;-85
2021/05/29 09:17:15;;;;;;;1.63;1.50;;;14.90;93.50;;;;;;4714616;30;20049;-85
2021/05/29 09:20:05;;;;;;;2.03;1.42;;;14.80;95.00;;;;;;4698699;30;20065;-85
2021/05/29 09:22:53;;;;;;;3.05;1.52;;;14.80;95.00;;;;;;4698126;30;20078;-85
2021/05/29 09:25:23;;;;;;;2.28;1.60;;;14.60;91.20;;;;;;4682278;30;20068;-85
2021/05/29 09:27:59;;;;;;;1.25;1.10;;;14.50;91.90;;;;;;4698938;30;20057;-84
2021/05/29 09:30:49;;;;;;;2.47;2.20;;;14.50;92.40;;;;;;4697717;30;20052;-85
2021/05/29 09:33:23;;;;;;;2.00;1.85;;;14.40;93.20;;;;;;4714138;30;20063;-84
2021/05/29 09:35:57;;;;;;;1.60;1.45;;;14.40;93.10;;;;;;4721146;30;20052;-85
2021/05/29 09:38:32;;;;;;;1.80;1.60;;;14.60;91.70;;;;;;4733401;30;20055;-85
2021/05/29 09:41:00;;;;;;;1.60;1.50;;;14.60;93.90;;;;;;4717007;30;20059;-85
2021/05/29 09:43:28;;;;;;;1.60;1.45;;;14.70;94.10;;;;;;4733548;30;20060;-85
2021/05/29 09:46:04;;;;;;;1.30;1.20;;;14.60;93.50;;;;;;4718459;30;20055;-85
2021/05/29 09:48:32;;;;;;;1.60;1.40;;;15.00;94.00;;;;;;4718012;30;20048;-84
2021/05/29 09:51:12;;;;;;;2.53;1.73;;;14.90;91.50;;;;;;4746755;30;20064;-86
2021/05/29 09:53:44;;;;;;;4.65;1.50;;;14.70;93.80;;;;;;4717444;30;20492;-85
2021/05/29 09:56:31;;;;;;;1.73;1.52;;;14.70;93.20;;;;;;4732784;30;20071;-84
2021/05/29 09:59:07;;;;;;;2.70;2.20;;;15.00;94.10;;;;;;4731693;30;20052;-84
2021/05/29 10:01:53;;;;;;;3.15;2.85;;;15.20;91.60;;;;;;4717638;30;20067;-86
2021/05/29 10:04:27;;;;;;;3.70;1.27;;;15.50;90.40;;;;;;4718004;30;20064;-85
2021/05/29 10:07:00;;;;;;;2.15;1.52;;;15.60;89.90;;;;;;4718910;30;20071;-86
2021/05/29 10:09:28;;;;;;;5.53;1.55;;;15.70;88.10;;;;;;4707580;30;20052;-87
2021/05/29 10:11:57;;;;;;;1.50;1.40;;;16.10;88.30;;;;;;4700767;30;20061;-85
2021/05/29 10:14:27;;;;;;;1.90;1.70;;;16.00;86.90;;;;;;4729738;30;20452;-85
2021/05/29 10:16:57;;;;;;;1.52;1.20;;;15.90;87.30;;;;;;4715054;30;20041;-86
2021/05/29 10:19:26;;;;;;;1.40;1.30;;;15.80;90.10;;;;;;4715191;30;20056;-85
2021/05/29 10:21:54;;;;;;;2.03;1.77;;;15.50;89.80;;;;;;4699975;30;20405;-85
2021/05/29 10:24:27;;;;;;;3.53;1.98;;;14.90;90.20;;;;;;4728070;30;20052;-86
2021/05/29 10:26:55;;;;;;;1.52;1.42;;;14.60;91.30;;;;;;4715596;30;20065;-85
2021/05/29 10:29:27;;;;;;;1.52;1.42;;;14.30;91.00;;;;;;4729202;30;20415;-85
2021/05/29 10:32:15;;;;;;;4.28;2.10;;;14.20;91.50;;;;;;4714346;30;20061;-85
2021/05/29 10:35:05;;;;;;;2.35;1.42;;;14.20;91.50;;;;;;4703546;30;20563;-85
2021/05/29 10:37:44;;;;;;;1.13;1.13;;;14.30;93.00;;;;;;4752865;30;20424;-85
2021/05/29 10:40:14;;;;;;;1.70;1.58;;;14.80;91.50;;;;;;4721827;30;20067;-86
2021/05/29 10:42:43;;;;;;;2.28;1.40;;;15.10;86.40;;;;;;4738295;30;20056;-85
2021/05/29 10:45:18;;;;;;;1.67;1.58;;;15.20;90.20;;;;;;4754544;30;20055;-85
2021/05/29 10:48:13;;;;;;;1.60;1.50;;;15.40;91.20;;;;;;4706794;30;20064;-86
2021/05/29 10:50:44;;;;;;;4.32;1.55;;;15.50;90.00;;;;;;4702474;30;20049;-85
2021/05/29 10:53:43;;;;;;;1.92;1.77;;;15.30;91.20;;;;;;4716975;30;20645;-85
2021/05/29 10:56:20;;;;;;;1.45;1.30;;;15.20;90.40;;;;;;4703361;30;20041;-86
2021/05/29 10:59:03;;;;;;;1.60;1.50;;;15.00;91.60;;;;;;4718524;30;20049;-86
2021/05/29 11:04:23;;;;;;;1.73;1.63;;;15.40;86.80;;;;;;4718927;30;20068;-85
2021/05/29 11:06:57;;;;;;;1.80;1.48;;;15.60;83.00;;;;;;4689005;30;20052;-86
2021/05/29 11:09:28;;;;;;;1.70;1.60;;;16.10;86.50;;;;;;4714877;30;20064;-85
2021/05/29 11:12:03;;;;;;;1.70;1.60;;;16.40;82.80;;;;;;4702973;30;20053;-86
2021/05/29 11:14:58;;;;;;;1.63;1.30;;;16.10;86.90;;;;;;4717576;30;20066;-83
2021/05/29 11:17:30;;;;;;;2.20;1.50;;;16.10;91.00;;;;;;4718648;30;20061;-85
2021/05/29 11:20:22;;;;;;;1.63;1.50;;;15.90;85.40;;;;;;4702345;30;20056;-85
2021/05/29 11:22:50;;;;;;;2.22;1.98;;;15.90;89.00;;;;;;4702728;30;20061;-86
2021/05/29 11:25:23;;;;;;;3.53;1.50;;;16.10;93.20;;;;;;4687141;30;20420;-85
2021/05/29 11:27:57;;;;;;;3.97;1.85;;;15.90;90.30;;;;;;4703259;30;20053;-84
2021/05/29 11:30:34;;;;;;;2.30;2.13;;;15.60;89.50;;;;;;4705573;30;20056;-85
2021/05/29 11:33:11;;;;;;;1.85;1.63;;;15.40;90.00;;;;;;4734478;30;20074;-86
2021/05/29 11:35:49;;;;;;;1.70;1.60;;;15.70;91.00;;;;;;4737441;30;20052;-85
2021/05/29 11:38:29;;;;;;;2.85;1.98;;;16.10;87.50;;;;;;4723194;30;20056;-85
2021/05/29 11:41:11;;;;;;;3.55;1.67;;;16.20;88.30;;;;;;4736286;30;20056;-85
2021/05/29 11:43:42;;;;;;;1.98;1.85;;;16.20;88.80;;;;;;4738692;30;20063;-82
2021/05/29 11:46:16;;;;;;;2.50;2.03;;;16.00;88.20;;;;;;4720473;30;20059;-84
2021/05/29 11:49:01;;;;;;;2.55;2.35;;;15.70;90.80;;;;;;4734438;30;20059;-84
2021/05/29 11:51:37;;;;;;;3.10;2.08;;;15.40;88.80;;;;;;4720571;30;20056;-84
2021/05/29 11:54:43;;;;;;;5.68;2.42;;;15.20;90.20;;;;;;4748027;30;20059;-84
2021/05/29 11:57:20;;;;;;;2.70;2.22;;;15.20;90.50;;;;;;4697270;30;20052;-84
2021/05/29 12:00:03;;;;;;;2.53;1.63;;;15.10;89.90;;;;;;4710459;30;20059;-84
2021/05/29 12:02:52;;;;;;;1.67;1.58;;;15.10;88.30;;;;;;4734657;30;20059;-84
2021/05/29 12:05:37;;;;;;;1.83;1.73;;;15.30;90.00;;;;;;4734833;30;20052;-85
2021/05/29 12:08:06;;;;;;;7.43;1.95;;;15.70;86.90;;;;;;4735091;30;20056;-84
2021/05/29 12:10:52;;;;;;;1.80;1.70;;;15.80;92.30;;;;;;4697281;30;20045;-83
2021/05/29 12:13:25;;;;;;;2.35;1.75;;;15.70;89.80;;;;;;4713220;30;20049;-84
2021/05/29 12:15:58;;;;;;;2.33;2.15;;;15.40;90.30;;;;;;4714428;30;20068;-85
2021/05/29 12:18:39;;;;;;;1.50;1.40;;;15.40;89.40;;;;;;4715387;30;20067;-85
2021/05/29 12:21:07;;;;;;;1.60;1.50;;;15.30;86.70;;;;;;4699206;30;20064;-85
2021/05/29 12:23:55;;;;;;;2.53;1.92;;;15.40;87.50;;;;;;4714002;30;20056;-84
2021/05/29 12:26:26;;;;;;;1.98;1.88;;;15.60;85.40;;;;;;4699530;30;20532;-85
2021/05/29 12:28:54;;;;;;;1.40;1.30;;;15.40;87.70;;;;;;4714638;30;20492;-86
2021/05/29 12:31:22;;;;;;;1.98;1.83;;;15.30;90.10;;;;;;4685093;30;20061;-85
2021/05/29 12:34:14;;;;;;;3.83;1.50;;;15.30;89.40;;;;;;4698860;30;20049;-83
2021/05/29 12:37:11;;;;;;;;;;;15.30;90.10;;;;;;4716342;30;20078;-86
2021/05/29 12:39:55;;;;;;;1.50;1.40;;;15.60;91.10;;;;;;4704984;30;20043;-85
2021/05/29 12:42:26;;;;;;;1.58;1.48;;;16.30;90.80;;;;;;4736711;30;20068;-85
2021/05/29 12:45:18;;;;;;;1.60;1.35;;;16.50;88.30;;;;;;4732308;30;20065;-84
2021/05/29 12:48:05;;;;;;;1.30;1.20;;;16.60;83.40;;;;;;4713572;30;20049;-85
2021/05/29 12:50:59;;;;;;;1.15;1.10;;;16.30;81.50;;;;;;4698045;30;20551;-84
2021/05/29 12:53:38;;;;;;;1.58;1.48;;;15.90;82.90;;;;;;4712772;30;20061;-85
2021/05/29 12:56:18;;;;;;;2.10;2.00;;;15.70;85.30;;;;;;4713257;30;20056;-85
2021/05/29 12:59:07;;;;;;;2.50;1.27;;;15.60;86.20;;;;;;4698382;30;20053;-85
2021/05/29 13:02:34;;;;;;;1.92;1.23;;;15.70;86.80;;;;;;4703162;30;20057;-92
2021/05/29 13:07:55;;;;;;;1.23;1.13;;;16.00;89.50;;;;;;4715206;30;20061;-77
2021/05/29 13:10:27;;;;;;;3.00;1.65;;;15.70;89.10;;;;;;4712221;30;20061;-78
2021/05/29 13:12:58;;;;;;;1.63;1.48;;;15.70;92.50;;;;;;4714814;30;20067;-78
2021/05/29 13:15:27;;;;;;;1.20;1.10;;;16.10;84.90;;;;;;4715255;30;20543;-78
2021/05/29 13:18:10;;;;;;;2.30;1.42;;;16.00;87.40;;;;;;4713430;30;20045;-77
2021/05/29 13:20:40;;;;;;;2.42;1.80;;;16.10;84.70;;;;;;4712520;30;20061;-76
2021/05/29 13:23:14;;;;;;;1.35;1.25;;;16.30;83.80;;;;;;4714733;30;20056;-77
2021/05/29 13:25:43;;;;;;;1.08;1.08;;;16.60;85.50;;;;;;4712920;30;20076;-78
2021/05/29 13:28:18;;;;;;;1.25;1.15;;;16.70;83.10;;;;;;4699241;30;20057;-76
2021/05/29 13:30:47;;;;;;;1.73;1.63;;;16.70;79.60;;;;;;4711732;30;20060;-77
2021/05/29 13:33:18;;;;;;;0.77;0.77;;;16.60;79.80;;;;;;4731594;30;20051;-76
2021/05/29 13:35:46;;;;;;;2.05;1.27;;;16.50;81.30;;;;;;4719462;30;20056;-79